Time;durP1;ratioP1;P1;durP2;ratioP2;P2;SDS_P1;SDS_P2;PMS_P1;PMS_P2;Temp;Humidity;BMP_temperature;BMP_pressure;BME280_temperature;BME280_humidity;BME280_pressure;Samples;Min_cycle;Max_cycle;Signal;HPM_P1;HPM_P2
2022/03/24 00:00:59;;;;;;;5.65;5.00;;;5.10;99.90;;;;;;481545;246;27408;-73
2022/03/24 00:03:01;;;;;;;5.45;4.95;;;5.10;99.90;;;;;;481558;246;27915;-73
2022/03/24 00:05:03;;;;;;;8.38;5.60;;;5.10;99.90;;;;;;481549;246;27889;-72
2022/03/24 00:07:04;;;;;;;5.30;4.80;;;5.20;99.90;;;;;;481538;246;27428;-73
2022/03/24 00:09:05;;;;;;;6.43;4.55;;;5.20;99.90;;;;;;481531;246;27887;-73
2022/03/24 00:11:07;;;;;;;5.82;4.57;;;5.10;99.90;;;;;;481552;247;27393;-73
2022/03/24 00:13:08;;;;;;;5.60;4.40;;;5.10;99.90;;;;;;481517;246;27452;-72
2022/03/24 00:15:09;;;;;;;6.82;5.30;;;5.10;99.90;;;;;;481514;246;27387;-72
2022/03/24 00:17:10;;;;;;;7.62;5.70;;;5.00;99.90;;;;;;481494;246;27499;-73
2022/03/24 00:19:12;;;;;;;6.25;4.95;;;5.00;99.90;;;;;;481599;246;27407;-74
2022/03/24 00:21:14;;;;;;;9.00;4.90;;;5.00;99.90;;;;;;481516;246;28115;-70
2022/03/24 00:23:14;;;;;;;6.97;5.43;;;5.00;99.90;;;;;;481542;246;27883;-70
2022/03/24 00:25:15;;;;;;;7.55;5.70;;;5.00;99.90;;;;;;481555;246;27891;-70
2022/03/24 00:27:17;;;;;;;8.20;5.65;;;5.00;99.90;;;;;;481569;246;27412;-70
2022/03/24 00:29:19;;;;;;;7.20;5.50;;;5.00;99.90;;;;;;481566;246;27409;-69
2022/03/24 00:31:19;;;;;;;5.90;5.05;;;4.90;99.90;;;;;;481524;246;27468;-70
2022/03/24 00:33:21;;;;;;;6.65;5.20;;;4.90;99.90;;;;;;481563;246;27428;-71
2022/03/24 00:35:23;;;;;;;5.90;5.30;;;4.90;99.90;;;;;;481532;246;27447;-70
2022/03/24 00:37:24;;;;;;;6.28;5.43;;;4.80;99.90;;;;;;481518;246;27411;-69
2022/03/24 00:39:24;;;;;;;7.95;5.78;;;4.80;99.90;;;;;;481516;246;28041;-72
2022/03/24 00:41:29;;;;;;;8.18;5.62;;;4.80;99.90;;;;;;481580;246;27946;-70
2022/03/24 00:43:30;;;;;;;6.00;5.40;;;4.80;99.90;;;;;;481584;246;27376;-70
2022/03/24 00:45:31;;;;;;;7.97;5.90;;;4.80;99.90;;;;;;481592;246;27416;-70
2022/03/24 00:47:35;;;;;;;7.68;5.87;;;4.80;99.90;;;;;;481554;246;28644;-70
2022/03/24 00:49:34;;;;;;;7.85;6.00;;;4.70;99.90;;;;;;481427;247;27923;-72
2022/03/24 00:51:36;;;;;;;7.70;5.70;;;4.70;99.90;;;;;;481552;246;27497;-72
2022/03/24 00:53:37;;;;;;;7.62;5.05;;;4.70;99.90;;;;;;481552;247;27502;-72
2022/03/24 00:55:38;;;;;;;6.87;5.00;;;4.70;99.90;;;;;;481522;246;27491;-72
2022/03/24 00:57:40;;;;;;;5.90;5.20;;;4.60;99.90;;;;;;481585;246;27987;-72
2022/03/24 00:59:41;;;;;;;6.75;5.40;;;4.60;99.90;;;;;;481586;246;27910;-73
2022/03/24 01:01:42;;;;;;;6.80;5.30;;;4.60;99.90;;;;;;481562;247;27384;-73
2022/03/24 01:03:43;;;;;;;6.18;5.10;;;4.60;99.90;;;;;;481525;246;27494;-73
2022/03/24 01:05:45;;;;;;;5.65;4.50;;;4.60;99.90;;;;;;481536;246;27439;-73
2022/03/24 01:07:46;;;;;;;5.20;4.70;;;4.60;99.90;;;;;;481537;246;27401;-73
2022/03/24 01:09:47;;;;;;;5.60;4.65;;;4.60;99.90;;;;;;481557;246;27512;-74
2022/03/24 01:11:50;;;;;;;5.32;4.82;;;4.60;99.90;;;;;;481550;246;27474;-72
2022/03/24 01:13:51;;;;;;;6.22;5.25;;;4.50;99.90;;;;;;481440;246;27515;-73
2022/03/24 01:15:52;;;;;;;8.10;5.87;;;4.50;99.90;;;;;;481462;247;28705;-72
2022/03/24 01:18:01;;;;;;;6.62;5.40;;;4.50;99.90;;;;;;481513;247;27828;-73
2022/03/24 01:20:03;;;;;;;6.65;4.87;;;4.40;99.90;;;;;;481547;246;27468;-72
2022/03/24 01:22:04;;;;;;;7.55;4.75;;;4.40;99.90;;;;;;481532;246;27478;-72
2022/03/24 01:24:08;;;;;;;5.93;5.32;;;4.40;99.90;;;;;;481543;246;27416;-73
2022/03/24 01:26:09;;;;;;;6.50;4.95;;;4.30;99.90;;;;;;481569;246;27393;-72
2022/03/24 01:28:10;;;;;;;6.82;5.55;;;4.30;99.90;;;;;;481525;246;27420;-74
2022/03/24 01:30:11;;;;;;;9.13;5.45;;;4.30;99.90;;;;;;481527;247;27403;-72
2022/03/24 01:32:12;;;;;;;5.43;4.95;;;4.40;99.90;;;;;;481530;246;27499;-72
2022/03/24 01:34:17;;;;;;;7.05;4.97;;;4.30;99.90;;;;;;481559;246;27408;-76
2022/03/24 01:36:18;;;;;;;6.93;5.35;;;4.30;99.90;;;;;;481418;247;27467;-72
2022/03/24 01:38:19;;;;;;;5.60;5.00;;;4.30;99.90;;;;;;481517;247;27423;-72
2022/03/24 01:40:19;;;;;;;7.35;6.03;;;4.20;99.90;;;;;;481537;246;27845;-72
2022/03/24 01:42:21;;;;;;;7.20;5.75;;;4.20;99.90;;;;;;481539;246;28009;-72
2022/03/24 01:44:23;;;;;;;8.88;6.25;;;4.20;99.90;;;;;;481546;246;27420;-73
2022/03/24 01:46:24;;;;;;;5.90;5.37;;;4.20;99.90;;;;;;481552;246;27408;-73
2022/03/24 01:48:26;;;;;;;6.80;5.32;;;4.10;99.90;;;;;;481556;246;27884;-73
2022/03/24 01:50:27;;;;;;;6.68;5.15;;;4.20;99.90;;;;;;481506;246;27886;-72
2022/03/24 01:52:28;;;;;;;6.47;5.65;;;4.20;99.90;;;;;;481538;246;27847;-73
2022/03/24 01:54:30;;;;;;;7.25;5.53;;;4.10;99.90;;;;;;481535;247;27424;-74
2022/03/24 01:56:31;;;;;;;7.05;5.85;;;4.10;99.90;;;;;;481524;246;27428;-77
2022/03/24 01:58:31;;;;;;;7.75;6.10;;;4.10;99.90;;;;;;481535;246;27381;-73
2022/03/24 02:00:33;;;;;;;8.27;5.97;;;4.10;99.90;;;;;;481554;246;27409;-72
2022/03/24 02:02:34;;;;;;;6.43;5.10;;;4.10;99.90;;;;;;481551;246;27488;-74
2022/03/24 02:04:35;;;;;;;6.43;5.62;;;4.00;99.90;;;;;;481517;246;27432;-73
2022/03/24 02:06:36;;;;;;;7.60;6.03;;;4.00;99.90;;;;;;481555;246;27452;-77
2022/03/24 02:08:38;;;;;;;7.62;6.18;;;3.90;99.90;;;;;;481561;246;27825;-72
2022/03/24 02:10:39;;;;;;;6.47;5.60;;;3.90;99.90;;;;;;481513;247;27884;-71
2022/03/24 02:12:40;;;;;;;7.87;5.80;;;3.90;99.90;;;;;;481551;246;27859;-71
2022/03/24 02:14:41;;;;;;;8.07;5.87;;;3.90;99.90;;;;;;481547;246;27421;-71
2022/03/24 02:16:44;;;;;;;7.22;5.85;;;3.90;99.90;;;;;;481564;246;27512;-72
2022/03/24 02:18:45;;;;;;;7.60;5.97;;;4.00;99.90;;;;;;481494;247;27373;-69
2022/03/24 02:20:47;;;;;;;7.55;5.68;;;3.90;99.90;;;;;;481511;247;27506;-71
2022/03/24 02:22:47;;;;;;;7.62;6.43;;;3.80;99.90;;;;;;481448;247;28607;-70
2022/03/24 02:24:48;;;;;;;6.57;5.25;;;3.80;99.90;;;;;;481566;246;27839;-70
2022/03/24 02:26:49;;;;;;;6.32;5.70;;;3.80;99.90;;;;;;481457;247;27910;-70
2022/03/24 02:30:58;;;;;;;8.55;6.12;;;3.80;99.90;;;;;;481550;246;27518;-72
2022/03/24 02:32:59;;;;;;;7.28;5.85;;;3.70;99.90;;;;;;481537;246;27428;-72
2022/03/24 02:35:00;;;;;;;7.62;5.57;;;3.70;99.90;;;;;;481555;246;27951;-73
2022/03/24 02:37:01;;;;;;;9.25;5.60;;;3.60;99.90;;;;;;481537;246;27928;-72
2022/03/24 02:39:09;;;;;;;6.47;5.80;;;3.60;99.90;;;;;;481561;246;28859;-72
2022/03/24 02:41:10;;;;;;;7.62;6.25;;;3.60;99.90;;;;;;481590;246;27539;-72
2022/03/24 02:43:11;;;;;;;7.12;6.15;;;3.70;99.90;;;;;;481547;246;27765;-74
2022/03/24 02:45:13;;;;;;;7.60;5.70;;;3.70;99.90;;;;;;481547;246;27386;-73
2022/03/24 02:47:14;;;;;;;7.50;6.22;;;3.70;99.90;;;;;;481535;246;27495;-72
2022/03/24 02:49:15;;;;;;;8.48;6.55;;;3.70;99.90;;;;;;481498;246;27432;-72
2022/03/24 02:51:16;;;;;;;6.62;5.37;;;3.60;99.90;;;;;;481517;247;27447;-73
2022/03/24 02:53:19;;;;;;;7.55;5.60;;;3.60;99.90;;;;;;481555;246;27955;-72
2022/03/24 02:55:21;;;;;;;8.20;6.32;;;3.50;99.90;;;;;;481543;246;27460;-72
2022/03/24 02:57:22;;;;;;;8.57;6.10;;;3.60;99.90;;;;;;481520;246;27431;-73
2022/03/24 02:59:23;;;;;;;8.07;5.62;;;3.60;99.90;;;;;;481541;246;27820;-72
2022/03/24 03:01:27;;;;;;;6.35;5.53;;;3.60;99.90;;;;;;481531;247;27861;-73
2022/03/24 03:03:28;;;;;;;9.50;6.45;;;3.60;99.90;;;;;;481512;246;27504;-72
2022/03/24 03:05:30;;;;;;;8.00;6.05;;;3.60;99.90;;;;;;481526;246;27433;-72
2022/03/24 03:07:31;;;;;;;7.65;6.03;;;3.60;99.90;;;;;;481509;246;27380;-73
2022/03/24 03:09:32;;;;;;;7.10;5.60;;;3.50;99.90;;;;;;481521;247;27888;-73
2022/03/24 03:11:33;;;;;;;8.82;6.07;;;3.50;99.90;;;;;;481500;246;27924;-72
2022/03/24 03:13:35;;;;;;;6.90;5.65;;;3.50;99.90;;;;;;481522;247;27852;-72
2022/03/24 03:15:36;;;;;;;8.40;6.30;;;3.40;99.90;;;;;;481534;246;28018;-73
2022/03/24 03:17:37;;;;;;;9.35;6.55;;;3.50;99.90;;;;;;481500;246;27836;-72
2022/03/24 03:19:40;;;;;;;7.10;6.03;;;3.50;99.90;;;;;;481517;246;27418;-72
2022/03/24 03:21:40;;;;;;;8.68;6.37;;;3.40;99.90;;;;;;481472;247;27397;-72
2022/03/24 03:23:41;;;;;;;7.35;5.70;;;3.40;99.90;;;;;;481562;246;27385;-72
2022/03/24 03:25:42;;;;;;;9.77;6.57;;;3.30;99.90;;;;;;481543;246;27601;-72
2022/03/24 03:27:43;;;;;;;8.48;6.43;;;3.30;99.90;;;;;;481513;246;27499;-73
2022/03/24 03:29:45;;;;;;;7.35;6.40;;;3.40;99.90;;;;;;481514;247;27425;-72
2022/03/24 03:31:46;;;;;;;6.50;5.68;;;3.40;99.90;;;;;;481523;246;27444;-72
2022/03/24 03:33:47;;;;;;;9.13;6.28;;;3.30;99.90;;;;;;481502;246;27400;-72
2022/03/24 03:35:48;;;;;;;9.35;6.68;;;3.30;99.90;;;;;;481541;246;27434;-73
2022/03/24 03:37:54;;;;;;;7.57;6.75;;;3.30;99.90;;;;;;481532;246;27939;-73
2022/03/24 03:39:54;;;;;;;8.75;6.80;;;3.20;99.90;;;;;;481553;247;27498;-72
2022/03/24 03:41:55;;;;;;;7.78;6.45;;;3.20;99.90;;;;;;481496;246;27454;-73
2022/03/24 03:43:57;;;;;;;9.52;6.70;;;3.20;99.90;;;;;;481527;246;27895;-72
2022/03/24 03:45:58;;;;;;;7.90;5.90;;;3.20;99.90;;;;;;481525;246;27903;-72
2022/03/24 03:47:59;;;;;;;8.25;6.70;;;3.20;99.90;;;;;;481495;246;27895;-72
2022/03/24 03:50:00;;;;;;;7.95;6.32;;;3.20;99.90;;;;;;481523;246;27914;-73
2022/03/24 03:52:02;;;;;;;10.45;6.28;;;3.20;99.90;;;;;;481505;246;27448;-72
2022/03/24 03:54:03;;;;;;;7.97;6.25;;;3.20;99.90;;;;;;481548;246;27419;-72
2022/03/24 03:56:04;;;;;;;10.20;7.03;;;3.10;99.90;;;;;;481564;246;27391;-72
2022/03/24 03:58:05;;;;;;;7.30;6.07;;;3.10;99.90;;;;;;481530;246;27443;-72
2022/03/24 04:02:26;;;;;;;8.02;6.32;;;3.10;99.90;;;;;;481577;246;27524;-72
2022/03/24 04:04:27;;;;;;;8.75;6.28;;;3.10;99.90;;;;;;481528;246;27533;-72
2022/03/24 04:06:29;;;;;;;9.18;6.80;;;3.10;99.90;;;;;;481539;246;27377;-72
2022/03/24 04:08:31;;;;;;;8.85;6.60;;;3.00;99.90;;;;;;481512;246;27420;-72
2022/03/24 04:10:32;;;;;;;8.48;6.68;;;3.00;99.90;;;;;;481493;247;27445;-74
2022/03/24 04:12:34;;;;;;;7.75;6.40;;;3.10;99.90;;;;;;481512;246;27468;-74
2022/03/24 04:14:34;;;;;;;9.55;6.25;;;3.00;99.90;;;;;;481507;246;27503;-73
2022/03/24 04:16:35;;;;;;;8.50;6.32;;;3.00;99.90;;;;;;481370;246;27492;-72
2022/03/24 04:18:36;;;;;;;8.10;5.68;;;3.00;99.90;;;;;;481547;246;27931;-72
2022/03/24 04:20:40;;;;;;;8.38;6.20;;;3.00;99.90;;;;;;481539;246;28028;-72
2022/03/24 04:22:42;;;;;;;7.80;6.32;;;3.10;99.90;;;;;;481555;247;27520;-73
2022/03/24 04:24:43;;;;;;;7.43;6.57;;;3.10;99.90;;;;;;481528;246;27384;-73
2022/03/24 04:26:44;;;;;;;10.55;7.82;;;3.10;99.90;;;;;;481535;246;28053;-72
2022/03/24 04:28:45;;;;;;;11.02;7.55;;;3.10;99.90;;;;;;481550;246;28000;-73
2022/03/24 04:30:49;;;;;;;10.15;7.40;;;3.00;99.90;;;;;;481547;247;28929;-73
2022/03/24 04:32:50;;;;;;;10.48;7.55;;;3.00;99.90;;;;;;481554;246;27416;-73
2022/03/24 04:34:51;;;;;;;8.95;6.80;;;3.10;99.90;;;;;;481587;246;27388;-72
2022/03/24 04:36:53;;;;;;;12.55;7.70;;;3.10;99.90;;;;;;481549;246;27859;-72
2022/03/24 04:38:54;;;;;;;10.18;8.00;;;3.00;99.90;;;;;;481573;246;27420;-74
2022/03/24 04:40:56;;;;;;;14.05;8.77;;;3.00;99.90;;;;;;481564;246;27392;-72
2022/03/24 04:42:56;;;;;;;10.55;8.82;;;2.90;99.90;;;;;;481536;247;27448;-73
2022/03/24 04:44:58;;;;;;;12.73;8.93;;;2.80;99.90;;;;;;481543;246;27378;-73
2022/03/24 04:46:59;;;;;;;12.02;8.68;;;2.80;99.90;;;;;;481521;246;27468;-72
2022/03/24 04:49:02;;;;;;;10.98;8.60;;;2.80;99.90;;;;;;481560;246;27507;-74
2022/03/24 04:51:01;;;;;;;11.88;8.85;;;2.80;99.90;;;;;;481497;246;27380;-72
2022/03/24 04:53:03;;;;;;;11.95;8.35;;;2.70;99.90;;;;;;481539;246;27883;-72
2022/03/24 04:55:04;;;;;;;13.85;8.85;;;2.70;99.90;;;;;;481542;246;27840;-73
2022/03/24 04:57:06;;;;;;;12.32;8.60;;;2.70;99.90;;;;;;481535;246;27860;-74
2022/03/24 04:59:07;;;;;;;10.93;8.07;;;2.80;99.90;;;;;;481545;246;29020;-72
2022/03/24 05:01:08;;;;;;;11.48;9.13;;;2.80;99.90;;;;;;481559;246;27442;-72
2022/03/24 05:03:10;;;;;;;11.12;8.02;;;2.70;99.90;;;;;;481522;246;27377;-72
2022/03/24 05:05:11;;;;;;;10.73;6.82;;;2.70;99.90;;;;;;481515;246;27418;-73
2022/03/24 05:07:13;;;;;;;11.27;7.75;;;2.70;99.90;;;;;;481530;246;27408;-72
2022/03/24 05:09:14;;;;;;;11.20;7.95;;;2.70;99.90;;;;;;481540;246;27491;-72
2022/03/24 05:11:15;;;;;;;9.63;7.07;;;2.70;99.90;;;;;;481531;247;27987;-73
2022/03/24 05:13:16;;;;;;;11.65;8.25;;;2.60;99.90;;;;;;481539;246;27906;-72
2022/03/24 05:15:18;;;;;;;10.98;8.00;;;2.60;99.90;;;;;;481515;246;27444;-73
2022/03/24 05:17:19;;;;;;;7.97;6.55;;;2.60;99.90;;;;;;481538;246;27906;-77
2022/03/24 05:19:20;;;;;;;8.60;7.25;;;2.70;99.90;;;;;;481540;246;27393;-72
2022/03/24 05:21:21;;;;;;;8.00;6.85;;;2.70;99.90;;;;;;481536;246;27502;-73
2022/03/24 05:23:23;;;;;;;9.77;7.03;;;2.70;99.90;;;;;;481517;246;27400;-73
2022/03/24 05:25:26;;;;;;;10.57;7.35;;;2.70;99.90;;;;;;481551;246;27384;-72
2022/03/24 05:27:25;;;;;;;8.43;6.95;;;2.70;99.90;;;;;;481456;246;27964;-74
2022/03/24 05:29:26;;;;;;;7.85;6.37;;;2.70;99.90;;;;;;481539;246;27408;-73
2022/03/24 05:31:28;;;;;;;8.90;6.95;;;2.70;99.90;;;;;;481538;246;27424;-73
2022/03/24 05:33:30;;;;;;;10.63;7.85;;;2.70;99.90;;;;;;481516;246;28184;-73
2022/03/24 05:35:35;;;;;;;11.30;7.07;;;2.70;99.90;;;;;;481507;247;27903;-74
2022/03/24 05:37:31;;;;;;;11.45;7.87;;;2.70;99.90;;;;;;481223;247;27886;-73
2022/03/24 05:39:33;;;;;;;11.60;8.45;;;2.60;99.90;;;;;;481547;246;27373;-73
2022/03/24 05:41:34;;;;;;;9.68;6.85;;;2.60;99.90;;;;;;481539;246;27409;-72
2022/03/24 05:43:35;;;;;;;8.70;6.87;;;2.70;99.90;;;;;;481533;246;27456;-72
2022/03/24 05:45:36;;;;;;;8.90;7.22;;;2.70;99.90;;;;;;481532;246;27508;-73
2022/03/24 05:47:39;;;;;;;10.27;7.40;;;2.70;99.90;;;;;;481550;246;27506;-76
2022/03/24 05:49:40;;;;;;;8.68;6.93;;;2.70;99.90;;;;;;481503;246;27413;-72
2022/03/24 05:51:45;;;;;;;9.98;7.37;;;2.70;99.90;;;;;;481506;247;27378;-73
2022/03/24 05:53:42;;;;;;;11.85;7.22;;;2.70;99.90;;;;;;481369;247;27523;-72
2022/03/24 06:00:01;;;;;;;9.25;7.00;;;2.80;99.90;;;;;;472344;252;27538;-72
2022/03/24 06:02:02;;;;;;;10.93;7.07;;;2.80;99.90;;;;;;472376;251;27440;-73
2022/03/24 06:04:03;;;;;;;11.00;7.57;;;2.80;99.90;;;;;;472381;251;27974;-72
2022/03/24 06:06:06;;;;;;;11.07;7.35;;;2.90;99.90;;;;;;472351;251;27899;-73
2022/03/24 06:08:07;;;;;;;10.75;7.95;;;2.90;99.90;;;;;;480926;247;29178;-72
2022/03/24 06:10:08;;;;;;;10.57;7.68;;;2.90;99.90;;;;;;480892;247;27504;-73
2022/03/24 06:12:10;;;;;;;12.13;7.70;;;3.00;99.90;;;;;;472408;251;28028;-72
2022/03/24 06:14:13;;;;;;;10.70;7.32;;;3.00;99.90;;;;;;480910;246;27974;-74
2022/03/24 06:16:14;;;;;;;10.75;7.65;;;3.00;99.90;;;;;;472370;251;27523;-72
2022/03/24 06:18:16;;;;;;;9.98;7.35;;;3.10;99.90;;;;;;472350;251;27431;-72
2022/03/24 06:20:17;;;;;;;8.90;7.55;;;3.10;99.90;;;;;;472353;251;27458;-72
2022/03/24 06:22:18;;;;;;;10.68;7.30;;;3.10;99.90;;;;;;472374;251;27788;-77
2022/03/24 06:24:26;;;;;;;9.45;6.93;;;3.20;99.90;;;;;;472387;251;27416;-72
2022/03/24 06:26:29;;;;;;;10.50;7.30;;;3.30;99.90;;;;;;472346;251;27552;-72
2022/03/24 06:28:28;;;;;;;9.98;6.82;;;3.40;99.90;;;;;;480881;247;27499;-70
2022/03/24 06:30:29;;;;;;;9.30;6.50;;;3.40;99.90;;;;;;472364;251;27912;-71
2022/03/24 06:32:34;;;;;;;12.18;7.78;;;3.50;99.90;;;;;;472353;251;27995;-72
2022/03/24 06:34:35;;;;;;;9.02;6.55;;;3.40;99.90;;;;;;472358;251;27443;-71
2022/03/24 06:36:36;;;;;;;9.15;7.10;;;3.30;99.90;;;;;;472352;251;27440;-71
2022/03/24 06:38:37;;;;;;;9.27;7.28;;;3.40;99.90;;;;;;472344;251;28031;-70
2022/03/24 06:40:39;;;;;;;10.60;7.35;;;3.40;99.90;;;;;;472362;251;27903;-71
2022/03/24 06:42:40;;;;;;;12.48;7.70;;;3.50;99.90;;;;;;480930;246;28755;-71
2022/03/24 06:44:41;;;;;;;11.50;7.30;;;3.60;99.90;;;;;;472358;251;27511;-71
2022/03/24 06:46:44;;;;;;;9.25;6.70;;;3.60;99.90;;;;;;472347;251;27494;-70
2022/03/24 06:48:45;;;;;;;8.68;6.65;;;3.70;99.90;;;;;;472372;251;27466;-70
2022/03/24 06:50:46;;;;;;;9.75;7.10;;;3.80;99.90;;;;;;472366;251;27451;-70
2022/03/24 06:52:47;;;;;;;8.15;6.90;;;3.90;99.90;;;;;;472324;251;27935;-71
2022/03/24 06:54:55;;;;;;;9.60;7.22;;;4.00;99.90;;;;;;472343;251;27867;-71
2022/03/24 06:56:56;;;;;;;11.38;7.60;;;4.10;99.90;;;;;;472340;251;27780;-70
2022/03/24 06:58:57;;;;;;;8.63;6.47;;;4.20;99.90;;;;;;472347;251;27491;-73
2022/03/24 07:00:58;;;;;;;8.93;6.62;;;4.30;99.90;;;;;;472362;251;27920;-70
2022/03/24 07:03:01;;;;;;;9.85;7.55;;;4.30;99.90;;;;;;472328;251;28011;-70
2022/03/24 07:05:01;;;;;;;8.40;6.28;;;4.40;99.90;;;;;;480860;247;27933;-71
2022/03/24 07:07:03;;;;;;;10.98;7.05;;;4.40;99.90;;;;;;472330;251;27396;-71
2022/03/24 07:09:03;;;;;;;9.45;6.47;;;4.40;99.90;;;;;;480917;247;27543;-72
2022/03/24 07:11:06;;;;;;;8.98;6.35;;;4.50;99.90;;;;;;472311;251;27408;-71
2022/03/24 07:13:07;;;;;;;9.98;7.07;;;4.60;99.90;;;;;;480891;246;27499;-71
2022/03/24 07:15:12;;;;;;;8.20;6.47;;;4.60;99.90;;;;;;480882;246;27472;-71
2022/03/24 07:17:10;;;;;;;9.18;7.03;;;4.70;99.90;;;;;;480836;247;27467;-70
2022/03/24 07:19:10;;;;;;;10.48;7.50;;;4.80;99.90;;;;;;480890;247;27497;-71
2022/03/24 07:21:11;;;;;;;9.60;7.15;;;4.90;99.90;;;;;;472361;251;27543;-73
2022/03/24 07:23:12;;;;;;;9.52;6.72;;;4.90;99.90;;;;;;472392;251;27977;-72
2022/03/24 07:25:14;;;;;;;10.07;7.22;;;4.90;99.90;;;;;;472413;251;28111;-71
2022/03/24 07:27:21;;;;;;;9.30;6.82;;;5.00;99.90;;;;;;472375;251;27446;-71
2022/03/24 07:29:22;;;;;;;8.15;6.35;;;5.20;99.90;;;;;;480965;247;27491;-71
2022/03/24 07:31:26;;;;;;;10.73;7.28;;;5.30;99.90;;;;;;472407;251;27475;-72
2022/03/24 07:33:27;;;;;;;7.90;6.35;;;5.30;99.90;;;;;;480953;246;27653;-71
2022/03/24 07:35:28;;;;;;;8.43;6.03;;;5.40;99.90;;;;;;472431;251;27883;-75
2022/03/24 07:37:31;;;;;;;7.65;6.78;;;5.50;99.90;;;;;;472441;250;27860;-71
2022/03/24 07:39:31;;;;;;;7.78;6.93;;;5.60;99.90;;;;;;480968;247;27963;-73
2022/03/24 07:41:32;;;;;;;6.53;5.93;;;5.70;99.90;;;;;;472424;251;27500;-71
2022/03/24 07:43:33;;;;;;;8.40;6.85;;;5.80;99.90;;;;;;480977;246;27488;-72
2022/03/24 07:45:38;;;;;;;9.07;7.25;;;5.90;99.90;;;;;;472447;251;27532;-71
2022/03/24 07:47:48;;;;;;;8.70;7.20;;;6.00;99.90;;;;;;480872;247;27463;-71
2022/03/24 07:49:49;;;;;;;10.93;7.30;;;6.10;99.90;;;;;;472435;251;27535;-71
2022/03/24 07:51:51;;;;;;;9.15;7.07;;;6.30;99.90;;;;;;472395;251;27891;-74
2022/03/24 07:53:52;;;;;;;9.43;7.47;;;6.40;99.90;;;;;;472404;251;27952;-73
2022/03/24 07:55:53;;;;;;;10.00;7.15;;;6.50;99.90;;;;;;472400;251;27494;-71
2022/03/24 07:57:54;;;;;;;10.30;7.43;;;6.60;99.90;;;;;;472395;251;27411;-71
2022/03/24 08:00:02;;;;;;;9.52;7.25;;;6.70;99.90;;;;;;472412;251;27464;-72
2022/03/24 08:02:03;;;;;;;9.32;7.30;;;6.70;99.90;;;;;;472440;251;27980;-71
2022/03/24 08:04:05;;;;;;;7.50;6.53;;;6.90;99.90;;;;;;472409;251;27870;-71
2022/03/24 08:06:06;;;;;;;8.15;6.87;;;7.00;99.90;;;;;;472423;251;27434;-72
2022/03/24 08:08:26;;;;;;;8.55;6.97;;;7.20;99.90;;;;;;472424;251;28004;-71
2022/03/24 08:10:26;;;;;;;8.80;7.40;;;7.30;99.90;;;;;;480968;247;27971;-71
2022/03/24 08:12:27;;;;;;;10.45;7.95;;;7.40;99.90;;;;;;472406;251;27934;-71
2022/03/24 08:14:28;;;;;;;13.30;9.10;;;7.70;99.90;;;;;;472433;251;27400;-71
2022/03/24 08:16:30;;;;;;;14.90;8.43;;;7.90;99.90;;;;;;472437;251;28782;-71
2022/03/24 08:18:31;;;;;;;15.27;9.90;;;8.10;99.90;;;;;;472421;251;27929;-74
2022/03/24 08:20:32;;;;;;;17.23;10.90;;;9.00;99.90;;;;;;472395;251;28096;-74
2022/03/24 08:22:33;;;;;;;22.90;12.97;;;9.90;99.90;;;;;;480975;246;28019;-74
2022/03/24 08:24:34;;;;;;;25.00;15.00;;;10.70;99.90;;;;;;471547;251;27985;-74
2022/03/24 08:26:45;;;;;;;23.80;14.90;;;11.10;99.90;;;;;;474190;250;28477;-73
2022/03/24 08:28:46;;;;;;;28.30;15.77;;;11.20;99.90;;;;;;475233;250;28371;-72
2022/03/24 08:30:47;;;;;;;27.90;16.33;;;11.70;99.90;;;;;;472420;251;28525;-73
2022/03/24 08:32:49;;;;;;;31.17;17.60;;;11.80;99.90;;;;;;481034;245;27750;-73
2022/03/24 08:34:56;;;;;;;33.23;16.37;;;11.90;99.90;;;;;;471547;251;28036;-75
2022/03/24 08:36:57;;;;;;;27.10;15.80;;;11.80;99.90;;;;;;474193;250;28024;-74
2022/03/24 08:38:59;;;;;;;28.53;15.53;;;11.90;99.60;;;;;;475192;250;27914;-74
2022/03/24 08:41:02;;;;;;;34.30;15.27;;;11.80;99.90;;;;;;472365;251;28577;-75
2022/03/24 08:43:03;;;;;;;31.43;14.77;;;11.50;99.90;;;;;;480990;246;27931;-74
2022/03/24 08:45:04;;;;;;;31.30;16.03;;;11.70;99.00;;;;;;471525;251;28351;-74
2022/03/24 08:47:06;;;;;;;28.83;16.80;;;11.80;98.70;;;;;;474197;250;28836;-74
2022/03/24 08:49:07;;;;;;;30.33;16.87;;;12.40;96.30;;;;;;475285;250;27763;-74
2022/03/24 08:51:14;;;;;;;28.47;16.47;;;12.70;95.10;;;;;;472410;251;28109;-74
2022/03/24 08:53:16;;;;;;;32.83;18.10;;;12.70;95.40;;;;;;481004;246;28186;-74
2022/03/24 08:55:17;;;;;;;29.23;16.77;;;12.90;94.60;;;;;;471528;251;28644;-75
2022/03/24 08:57:24;;;;;;;31.20;16.77;;;12.80;94.60;;;;;;474195;250;28985;-74
2022/03/24 08:59:19;;;;;;;24.40;14.73;;;12.60;93.60;;;;;;474746;250;28196;-74
2022/03/24 09:01:21;;;;;;;26.40;15.30;;;12.30;95.10;;;;;;472359;251;28207;-74
2022/03/24 09:03:22;;;;;;;24.03;15.27;;;12.50;94.60;;;;;;480939;246;28325;-74
2022/03/24 09:05:26;;;;;;;22.37;14.00;;;12.80;94.40;;;;;;471554;251;28244;-73
2022/03/24 09:07:34;;;;;;;28.63;14.73;;;12.40;93.70;;;;;;480642;247;28313;-76
2022/03/24 09:09:35;;;;;;;31.80;15.70;;;12.80;93.70;;;;;;481000;246;28445;-74
2022/03/24 09:11:43;;;;;;;24.60;14.50;;;13.00;92.90;;;;;;471491;251;28866;-75
2022/03/24 09:13:44;;;;;;;26.67;14.57;;;12.90;93.40;;;;;;474180;250;28465;-75
2022/03/24 09:15:47;;;;;;;23.10;13.87;;;13.10;92.70;;;;;;475173;250;28964;-75
2022/03/24 09:17:48;;;;;;;22.20;14.07;;;13.40;91.70;;;;;;472424;251;28586;-74
2022/03/24 09:19:59;;;;;;;26.10;15.50;;;13.30;91.80;;;;;;480984;246;28886;-74
2022/03/24 09:22:00;;;;;;;19.90;13.27;;;13.30;91.20;;;;;;471526;251;28334;-74
2022/03/24 09:24:01;;;;;;;22.13;13.53;;;13.30;91.20;;;;;;474168;250;28825;-74
2022/03/24 09:26:02;;;;;;;21.40;13.50;;;13.20;92.10;;;;;;475201;250;28581;-74
2022/03/24 09:28:04;;;;;;;18.67;12.33;;;13.40;91.10;;;;;;472419;251;28323;-74
2022/03/24 09:30:08;;;;;;;21.20;13.20;;;13.60;91.10;;;;;;480982;246;28840;-76
2022/03/24 09:32:12;;;;;;;27.30;13.70;;;13.70;91.50;;;;;;471517;251;28451;-74
2022/03/24 09:34:11;;;;;;;21.07;13.07;;;13.70;91.40;;;;;;473965;250;29732;-75
2022/03/24 09:36:12;;;;;;;19.53;12.40;;;13.60;91.50;;;;;;475192;250;28659;-74
2022/03/24 09:38:15;;;;;;;20.33;11.60;;;13.60;91.30;;;;;;472426;251;28172;-75
2022/03/24 09:40:16;;;;;;;22.77;13.33;;;13.90;90.30;;;;;;480977;246;28297;-74
2022/03/24 09:42:18;;;;;;;21.53;12.40;;;13.70;90.90;;;;;;471523;251;28824;-74
2022/03/24 09:44:19;;;;;;;18.10;12.10;;;13.80;90.80;;;;;;474171;250;29100;-74
2022/03/24 09:46:23;;;;;;;18.90;12.63;;;13.90;90.80;;;;;;475204;250;28209;-74
2022/03/24 09:48:24;;;;;;;16.10;10.73;;;13.70;91.70;;;;;;472392;251;28316;-75
2022/03/24 09:50:36;;;;;;;19.03;12.07;;;13.60;91.30;;;;;;480978;246;28765;-75
2022/03/24 09:52:37;;;;;;;24.83;14.33;;;14.00;90.00;;;;;;480953;246;28344;-75
2022/03/24 09:54:46;;;;;;;20.17;12.47;;;14.00;88.00;;;;;;480924;246;28771;-75
2022/03/24 09:56:45;;;;;;;20.90;13.60;;;13.80;89.60;;;;;;480931;247;28206;-75
2022/03/24 10:01:04;;;;;;;20.50;12.83;;;;;;;;;;474214;250;28223;-75
2022/03/24 10:03:06;;;;;;;25.57;14.40;;;13.90;89.30;;;;;;472401;251;26644;-75
2022/03/24 10:05:08;;;;;;;21.60;12.70;;;14.20;84.10;;;;;;481002;246;28632;-75
2022/03/24 10:07:23;;;;;;;25.60;15.00;;;14.20;85.90;;;;;;480953;246;28428;-75
2022/03/24 10:09:25;;;;;;;21.33;13.97;;;14.30;85.50;;;;;;471587;251;28196;-75
2022/03/24 10:11:26;;;;;;;20.30;12.90;;;14.10;84.80;;;;;;474207;250;28946;-74
2022/03/24 10:13:27;;;;;;;19.93;13.20;;;14.30;84.70;;;;;;475220;250;28995;-75
2022/03/24 10:15:29;;;;;;;20.30;13.10;;;14.40;83.80;;;;;;472409;251;28125;-75
2022/03/24 10:17:39;;;;;;;23.00;13.50;;;14.20;87.00;;;;;;481042;246;28410;-74
2022/03/24 10:19:40;;;;;;;21.33;13.20;;;14.30;84.30;;;;;;471553;251;28509;-74
2022/03/24 10:21:56;;;;;;;22.67;12.90;;;14.10;84.70;;;;;;474220;250;28866;-74
2022/03/24 10:24:00;;;;;;;21.20;12.40;;;14.00;84.00;;;;;;475149;250;28524;-74
2022/03/24 10:25:58;;;;;;;20.53;13.20;;;14.10;84.30;;;;;;472152;251;29435;-75
2022/03/24 10:30:24;;;;;;;22.30;12.97;;;14.50;83.50;;;;;;471576;252;28491;-74
2022/03/24 10:32:32;;;;;;;20.90;12.83;;;14.40;83.70;;;;;;474152;250;28352;-73
2022/03/24 10:34:33;;;;;;;18.27;12.20;;;14.40;84.20;;;;;;475181;250;28789;-74
2022/03/24 10:36:36;;;;;;;20.07;12.57;;;14.60;83.20;;;;;;472414;251;29062;-74
2022/03/24 10:38:39;;;;;;;19.07;12.33;;;14.60;84.70;;;;;;481010;246;29278;-74
2022/03/24 10:40:54;;;;;;;19.90;13.20;;;14.60;83.50;;;;;;480936;247;28995;-74
2022/03/24 10:42:59;;;;;;;21.47;11.90;;;14.70;80.30;;;;;;480990;246;28437;-75
2022/03/24 10:44:57;;;;;;;19.37;11.47;;;14.70;79.90;;;;;;480781;247;29029;-74
2022/03/24 10:49:41;;;;;;;27.33;12.60;;;15.00;78.00;;;;;;474215;250;28782;-74
2022/03/24 10:51:43;;;;;;;20.73;13.00;;;15.00;80.60;;;;;;475173;250;28882;-74